ADDS METAR Data INFO
IDs: Format: Raw Decoded Include TAF

Data at: 1330 UTC 20 Aug 2017

KVIS 201156Z AUTO 27003KT 10SM CLR 21/16 A2982 RMK AO2 SLP099 T02060161 10272 20200 53004
KVIS 201056Z AUTO 29004KT 10SM CLR 22/17 A2981 RMK AO2 SLP095 T02170167
KVIS 200956Z AUTO 25004KT 10SM CLR 22/17 A2980 RMK AO2 SLP095 T02170167 TSNO
KVIS 200856Z AUTO 23004KT 9SM CLR 23/18 A2980 RMK AO2 SLP094 T02280183 50004
KVIS 200756Z AUTO 00000KT 10SM CLR 24/17 A2981 RMK AO2 SLP095 T02440172 403720200
KVIS 200656Z AUTO 24003KT 10SM CLR 25/18 A2981 RMK AO2 SLP095 T02500178
KVIS 200556Z AUTO 32007KT 10SM CLR 27/17 A2979 RMK AO2 SLP091 T02720172 10372 20272 53013
KVIS 200456Z AUTO 31008KT 10SM CLR 29/18 A2978 RMK AO2 SLP087 T02940178
KVIS 200356Z AUTO 30009KT 10SM CLR 31/19 A2976 RMK AO2 SLP081 T03060189
KVIS 200256Z AUTO 29007KT 10SM CLR 33/19 A2975 RMK AO2 SLP078 T03280194 53002
KVIS 200156Z AUTO 28006KT 10SM CLR 34/19 A2974 RMK AO2 SLP074 T03390194
KVIS 200056Z AUTO 32005KT 10SM CLR 37/17 A2974 RMK AO2 SLP071 T03670167
KVIS 192356Z AUTO 27007KT 10SM CLR 36/18 A2975 RMK AO2 SLP075 T03610183 10372 20300 56023 TSNO
KVIS 192256Z AUTO 26007KT 10SM CLR 37/18 A2976 RMK AO2 SLP081 T03670183
KVIS 192056Z AUTO VRB04KT 10SM CLR 35/18 A2982 RMK AO2 SLP098 T03500178 57020
KVIS 191956Z AUTO VRB04KT 10SM CLR 34/18 A2983 RMK AO2 SLP104 T03440178
KVIS 191856Z AUTO 00000KT 9SM CLR 32/18 A2985 RMK AO2 SLP111 T03220183
KVIS 191756Z AUTO VRB03KT 9SM CLR 30/19 A2987 RMK AO2 SLP118 T03000194 10300 20200 58001
KVIS 191656Z AUTO 17004KT 8SM CLR 28/19 A2988 RMK AO2 SLP121 T02780194
KVIS 191556Z AUTO 20003KT 8SM CLR 25/19 A2988 RMK AO2 SLP121 T02500189
KVIS 191456Z AUTO 00000KT 7SM CLR 23/18 A2988 RMK AO2 SLP119 T02280183 53009
KVIS 191356Z AUTO 24003KT 8SM CLR 21/18 A2987 RMK AO2 SLP116 T02110183